Weather History for Vernon, TX

Change the Weather History Date:

Sunday, December 15, 2013

  Actual Average (KLTS) Record (KLTS)
Temperature  
Mean Temperature 46 °F -  
Max Temperature 63 °F 51 °F 72 °F (2010)
Min Temperature 30 °F 27 °F 15 °F (2008)
Degree Days  
Heating Degree Days 18    
Moisture  
Dew Point 28 °F    
Average Humidity 59    
Maximum Humidity 82    
Minimum Humidity 26    
Precipitation  
Precipitation 0.00 in - - ()
Sea Level Pressure  
Sea Level Pressure 30.24 in    
Wind  
Wind Speed 7 mph (SW)    
Max Wind Speed 14 mph    
Max Gust Speed 17 mph    
Visibility 10 miles    
Events      
Averages and records for this station are not official NWS values.
T = Trace of Precipitation, MM = Missing Value Source: NWS Daily Summary

Daily Weather History Graph

Daily Weather History Graph

Search for Another Location

Airport:

Trip Planner

Search our weather history database for the weather conditions in past years. The results will help you decide how hot, cold, wet, or windy it might be!

Date:

Astronomy

Dec. 15, 2013 Rise Set
Actual Time 7:35 AM CST 5:29 PM CST
Civil Twilight 7:08 AM CST 5:56 PM CST
Nautical Twilight 6:36 AM CST 6:28 PM CST
Astronomical Twilight 6:06 AM CST 6:58 PM CST
Moon 4:31 PM CST (12/15) 5:56 AM CST (12/15)
Length of Visible Light 10h 48m
Length of Day
9h 53m
Waxing Gibbous, 98% of the Moon is Illuminated
Dec 15
Waxing Gibbous
Dec 17
Full
Dec 25
Last Quarter
Jan 1
New
Jan 7
First Quarter

Hourly Weather History & Observations

Time (CST) Temp. Windchill Dew Point Humidity Pressure Visibility Wind Dir Wind Speed Gust Speed Precip Events Conditions
12:15 AM 32.0 °F 24.8 °F 25.3 °F 76% 30.32 in 10.0 mi WSW 8.1 mph - N/A   Clear
12:35 AM 31.8 °F 25.4 °F 25.3 °F 77% 30.32 in 10.0 mi WSW 6.9 mph - N/A   Clear
12:55 AM 31.5 °F 24.9 °F 25.3 °F 78% 30.31 in 10.0 mi WSW 6.9 mph - N/A   Clear
1:15 AM 31.1 °F 25.4 °F 25.3 °F 79% 30.31 in 10.0 mi SW 5.8 mph - N/A   Clear
1:35 AM 30.9 °F 25.2 °F 25.2 °F 79% 30.31 in 10.0 mi SW 5.8 mph - N/A   Clear
1:55 AM 30.7 °F 24.1 °F 25.2 °F 80% 30.30 in 10.0 mi WSW 6.9 mph - N/A   Clear
2:15 AM 31.1 °F 24.5 °F 25.3 °F 79% 30.30 in 10.0 mi WSW 6.9 mph - N/A   Clear
2:35 AM 30.6 °F 24.7 °F 25.0 °F 80% 30.30 in 10.0 mi WSW 5.8 mph - N/A   Clear
2:55 AM 30.2 °F 25.4 °F 25.0 °F 81% 30.29 in 10.0 mi West 4.6 mph - N/A   Clear
3:15 AM 30.2 °F - 25.2 °F 82% 30.29 in 10.0 mi Calm Calm - N/A   Clear
3:35 AM 30.6 °F - 25.2 °F 80% 30.29 in 10.0 mi Calm Calm - N/A   Scattered Clouds
3:55 AM 31.1 °F 25.4 °F 25.3 °F 79% 30.29 in 10.0 mi West 5.8 mph - N/A   Clear
4:15 AM 31.1 °F 25.4 °F 24.8 °F 77% 30.29 in 10.0 mi West 5.8 mph - N/A   Clear
4:35 AM 30.7 °F 26.0 °F 24.6 °F 78% 30.29 in 10.0 mi West 4.6 mph - N/A   Clear
4:55 AM 31.3 °F 26.6 °F 24.6 °F 76% 30.28 in 10.0 mi WSW 4.6 mph - N/A   Clear
5:15 AM 31.6 °F 26.0 °F 24.8 °F 76% 30.28 in 10.0 mi WSW 5.8 mph - N/A   Clear
5:35 AM 31.1 °F 26.4 °F 24.6 °F 77% 30.28 in 10.0 mi West 4.6 mph - N/A   Clear
5:55 AM 31.3 °F 26.6 °F 24.4 °F 76% 30.28 in 10.0 mi WSW 4.6 mph - N/A   Clear
6:15 AM 30.2 °F 24.3 °F 24.1 °F 78% 30.28 in 10.0 mi WSW 5.8 mph - N/A   Clear
6:35 AM 30.2 °F 24.3 °F 24.1 °F 78% 30.28 in 10.0 mi WSW 5.8 mph - N/A   Clear
6:55 AM 30.2 °F 24.3 °F 24.1 °F 78% 30.28 in 10.0 mi West 5.8 mph - N/A   Clear
7:15 AM - - - N/A% 30.29 in - West 6.9 mph - N/A   Unknown
7:35 AM 30.4 °F 24.5 °F 24.1 °F 77% 30.29 in 10.0 mi West 5.8 mph - N/A   Clear
7:55 AM 31.1 °F 26.4 °F 24.4 °F 76% 30.30 in 10.0 mi West 4.6 mph - N/A   Clear
8:15 AM 31.8 °F 25.4 °F 25.2 °F 76% 30.30 in 10.0 mi West 6.9 mph - N/A   Clear
8:35 AM 32.9 °F 28.5 °F 26.2 °F 76% 30.29 in 10.0 mi WSW 4.6 mph - N/A   Clear
8:55 AM 34.9 °F 30.8 °F 27.1 °F 73% 30.30 in 10.0 mi WSW 4.6 mph - N/A   Clear
9:15 AM 35.6 °F - 27.9 °F 73% 30.30 in 10.0 mi Calm Calm - N/A   Clear
9:35 AM 36.9 °F 34.3 °F 28.2 °F 71% 30.30 in 10.0 mi SSW 3.5 mph - N/A   Clear
9:55 AM 38.5 °F 36.1 °F 28.0 °F 66% 30.30 in 10.0 mi SW 3.5 mph - N/A   Clear
10:15 AM 40.5 °F - 28.6 °F 63% 30.30 in 10.0 mi Calm Calm - N/A   Clear
10:35 AM 42.8 °F - 30.0 °F 61% 30.30 in 10.0 mi Calm Calm - N/A   Clear
10:55 AM 45.3 °F 43.0 °F 31.1 °F 58% 30.30 in 10.0 mi SSW 4.6 mph - N/A   Clear
11:15 AM 48.2 °F - 31.8 °F 53% 30.29 in 10.0 mi SW 6.9 mph - N/A   Clear
11:35 AM 51.4 °F - 31.8 °F 47% 30.29 in 10.0 mi SW 6.9 mph - N/A   Clear
11:55 AM 54.1 °F - 32.2 °F 43% 30.27 in 10.0 mi SSW 5.8 mph - N/A   Clear
12:15 PM 57.2 °F - 30.7 °F 37% 30.26 in 10.0 mi SW 11.5 mph - N/A   Clear
12:35 PM 60.1 °F - 28.4 °F 30% 30.25 in 10.0 mi SSW 12.7 mph - N/A   Clear
12:55 PM 60.8 °F - 28.6 °F 29% 30.24 in 10.0 mi SW 13.8 mph - N/A   Clear
1:15 PM 61.3 °F - 27.5 °F 28% 30.23 in 10.0 mi SW 13.8 mph - N/A   Clear
1:35 PM 61.7 °F - 27.9 °F 28% 30.22 in 10.0 mi SW 13.8 mph - N/A   Clear
1:55 PM 62.4 °F - 27.9 °F 27% 30.20 in 10.0 mi SSW 10.4 mph 17.3 mph N/A   Clear
2:15 PM 62.8 °F - 27.9 °F 27% 30.20 in 10.0 mi SW 10.4 mph - N/A   Clear
2:35 PM 63.0 °F - 27.7 °F 26% 30.19 in 10.0 mi SSW 11.5 mph - N/A   Clear
2:55 PM 63.0 °F - 28.2 °F 27% 30.19 in 10.0 mi SSW 11.5 mph - N/A   Clear
3:15 PM 63.3 °F - 28.4 °F 27% 30.19 in 10.0 mi SSW 9.2 mph - N/A   Clear
3:35 PM 63.1 °F - 28.2 °F 27% 30.19 in 10.0 mi SW 12.7 mph - N/A   Clear
3:55 PM 62.8 °F - 27.9 °F 27% 30.18 in 10.0 mi SSW 10.4 mph - N/A   Clear
4:15 PM 62.4 °F - 27.5 °F 27% 30.18 in 10.0 mi SSW 12.7 mph - N/A   Clear
4:35 PM 61.9 °F - 28.4 °F 28% 30.17 in 10.0 mi SSW 10.4 mph - N/A   Clear
4:55 PM 61.0 °F - 29.1 °F 30% 30.18 in 10.0 mi SSW 8.1 mph - N/A   Clear
5:15 PM 58.6 °F - 29.5 °F 33% 30.17 in 10.0 mi SSW 5.8 mph - N/A   Clear
5:35 PM 54.5 °F - 30.6 °F 40% 30.17 in 10.0 mi South 10.4 mph - N/A   Clear
5:55 PM 51.8 °F - 30.9 °F 45% 30.17 in 10.0 mi South 8.1 mph - N/A   Clear
6:15 PM 49.6 °F - 30.9 °F 49% 30.17 in 10.0 mi South 6.9 mph - N/A   Clear
6:35 PM 47.7 °F - 30.6 °F 52% 30.17 in 10.0 mi South 9.2 mph - N/A   Clear
6:55 PM 46.8 °F - 30.2 °F 53% 30.17 in 10.0 mi South 10.4 mph - N/A   Clear
7:15 PM 46.9 °F - 29.7 °F 51% 30.18 in 10.0 mi South 9.2 mph - N/A   Clear
7:35 PM 46.0 °F 41.4 °F 29.7 °F 53% 30.18 in 10.0 mi South 9.2 mph - N/A   Clear
7:55 PM 45.5 °F 41.8 °F 29.7 °F 54% 30.18 in 10.0 mi SSW 6.9 mph - N/A   Clear
8:15 PM 44.6 °F 42.2 °F 29.5 °F 55% 30.18 in 10.0 mi SW 4.6 mph - N/A   Clear
8:35 PM 45.3 °F 41.6 °F 29.1 °F 53% 30.18 in 10.0 mi SW 6.9 mph - N/A   Clear
8:55 PM 42.8 °F 38.0 °F 29.3 °F 59% 30.18 in 10.0 mi SSW 8.1 mph - N/A   Clear
9:15 PM 42.3 °F 37.3 °F 29.5 °F 61% 30.18 in 10.0 mi SSW 8.1 mph - N/A   Clear
9:35 PM 41.7 °F 36.7 °F 29.3 °F 61% 30.18 in 10.0 mi SW 8.1 mph - N/A   Clear
9:55 PM 40.8 °F 35.6 °F 29.3 °F 64% 30.18 in 10.0 mi SW 8.1 mph - N/A   Clear
10:15 PM 40.1 °F 34.1 °F 29.3 °F 65% 30.18 in 10.0 mi SW 9.2 mph - N/A   Clear
10:35 PM 40.5 °F 34.6 °F 29.3 °F 64% 30.18 in 10.0 mi SW 9.2 mph - N/A   Clear
10:55 PM 39.9 °F 35.1 °F 29.3 °F 66% 30.18 in 10.0 mi SW 6.9 mph - N/A   Clear
11:15 PM 37.6 °F 31.0 °F 28.6 °F 70% 30.17 in 10.0 mi SW 9.2 mph - N/A   Clear
11:35 PM 38.1 °F 32.3 °F 28.4 °F 68% 30.17 in 10.0 mi SW 8.1 mph - N/A   Clear
11:55 PM 37.0 °F 30.4 °F 28.2 °F 70% 30.16 in 10.0 mi SSW 9.2 mph - N/A   Clear